ADDS METAR Data INFO
IDs: Format: Raw Decoded Include TAF

Data at: 1017 UTC 14 Dec 2017

KCDH 140955Z AUTO 00000KT 10SM OVC060 01/M02 A2991 RMK AO2
KCDH 140935Z AUTO 00000KT 10SM OVC060 01/M02 A2991 RMK AO2
KCDH 140915Z AUTO 00000KT 10SM OVC060 01/M02 A2991 RMK AO2
KCDH 140855Z AUTO 00000KT 10SM OVC060 01/M02 A2991 RMK AO2
KCDH 140835Z AUTO 00000KT 10SM OVC060 02/M02 A2991 RMK AO2
KCDH 140815Z AUTO 00000KT 10SM OVC060 03/M02 A2991 RMK AO2
KCDH 140755Z AUTO 00000KT 10SM OVC060 04/M02 A2991 RMK AO2
KCDH 140735Z AUTO 00000KT 10SM OVC060 04/M02 A2991 RMK AO2
KCDH 140715Z AUTO 00000KT 10SM OVC060 04/M02 A2991 RMK AO2
KCDH 140655Z AUTO 00000KT 10SM OVC055 03/M02 A2991 RMK AO2
KCDH 140635Z AUTO 00000KT 10SM OVC055 03/M02 A2991 RMK AO2
KCDH 140615Z AUTO 20004KT 10SM OVC055 04/M02 A2991 RMK AO2
KCDH 140555Z AUTO 00000KT 10SM OVC050 04/M02 A2991 RMK AO2
KCDH 140535Z AUTO 00000KT 10SM OVC055 04/M03 A2992 RMK AO2
KCDH 140515Z AUTO 00000KT 10SM OVC055 06/M03 A2991 RMK AO2
KCDH 140455Z AUTO 22003KT 10SM OVC060 08/M03 A2991 RMK AO2
KCDH 140435Z AUTO 00000KT 10SM OVC055 08/M03 A2991 RMK AO2
KCDH 140415Z AUTO 00000KT 10SM OVC055 09/M03 A2991 RMK AO2
KCDH 140355Z AUTO 00000KT 10SM OVC055 09/M03 A2990 RMK AO2
KCDH 140335Z AUTO 21005KT 10SM OVC055 10/M03 A2990 RMK AO2
KCDH 140315Z AUTO 21006KT 10SM OVC055 10/M03 A2989 RMK AO2
KCDH 140255Z AUTO 20004KT 10SM FEW046 BKN055 09/M04 A2989 RMK AO2
KCDH 140235Z AUTO 20003KT 10SM SCT050 09/M04 A2989 RMK AO2
KCDH 140215Z AUTO 20005KT 10SM FEW050 FEW055 09/M03 A2988 RMK AO2
KCDH 140155Z AUTO 20004KT 10SM FEW046 FEW050 10/M04 A2988 RMK AO2
KCDH 140135Z AUTO 20003KT 10SM CLR 10/M04 A2988 RMK AO2
KCDH 140115Z AUTO 20004KT 10SM FEW044 FEW050 11/M04 A2988 RMK AO2
KCDH 140055Z AUTO 20004KT 10SM FEW043 12/M04 A2988 RMK AO2
KCDH 140035Z AUTO 20004KT 10SM CLR 12/M04 A2988 RMK AO2
KCDH 140015Z AUTO 00000KT 10SM CLR 12/M05 A2988 RMK AO2
KCDH 132355Z AUTO 19004KT 10SM CLR 13/M05 A2987 RMK AO2
KCDH 132335Z AUTO 21004KT 10SM CLR 14/M05 A2986 RMK AO2
KCDH 132315Z AUTO 21005KT 10SM CLR 15/M05 A2986 RMK AO2
KCDH 132255Z AUTO 20006KT 10SM CLR 17/M05 A2985 RMK AO2
KCDH 132235Z AUTO 22005G13KT 10SM CLR 18/M06 A2986 RMK AO2
KCDH 132215Z AUTO 22007G15KT 10SM CLR 19/M06 A2986 RMK AO2
KCDH 132155Z AUTO 21008G15KT 10SM CLR 19/M07 A2986 RMK AO2
KCDH 132135Z AUTO 22006G13KT 10SM CLR 19/M07 A2986 RMK AO2
KCDH 132115Z AUTO 22012G18KT 200V260 10SM CLR 20/M07 A2987 RMK AO2
KCDH 132055Z AUTO 22008G14KT 10SM CLR 20/M07 A2987 RMK AO2
KCDH 132035Z AUTO 22008G15KT 10SM CLR 20/M06 A2988 RMK AO2
KCDH 132015Z AUTO 22008G16KT 10SM CLR 19/M06 A2989 RMK AO2
KCDH 131955Z AUTO 22009KT 10SM CLR 19/M06 A2990 RMK AO2
KCDH 131935Z AUTO 22011G16KT 10SM CLR 18/M06 A2991 RMK AO2
KCDH 131915Z AUTO 21008G17KT 10SM CLR 18/M06 A2993 RMK AO2
KCDH 131855Z AUTO 23008G16KT 10SM CLR 18/M06 A2994 RMK AO2
KCDH 131835Z AUTO 22008G15KT 10SM CLR 17/M06 A2996 RMK AO2
KCDH 131815Z AUTO 21011KT 10SM CLR 16/M07 A2997 RMK AO2
KCDH 131755Z AUTO 21009G15KT 10SM CLR 15/M07 A2999 RMK AO2
KCDH 131735Z AUTO 22012G17KT 10SM CLR 14/M07 A3000 RMK AO2
KCDH 131715Z AUTO 21012KT 10SM CLR 13/M07 A3001 RMK AO2
KCDH 131655Z AUTO 20010KT 10SM CLR 12/M07 A3002 RMK AO2
KCDH 131635Z AUTO 22011KT 10SM CLR 12/M08 A3003 RMK AO2
KCDH 131615Z AUTO 21006KT 10SM CLR 11/M08 A3004 RMK AO2
KCDH 131555Z AUTO 20005KT 10SM CLR 10/M07 A3006 RMK AO2
KCDH 131535Z AUTO 20006KT 10SM CLR 08/M07 A3007 RMK AO2
KCDH 131515Z AUTO 19003KT 10SM CLR 06/M06 A3007 RMK AO2
KCDH 131455Z AUTO 17003KT 10SM CLR 04/M04 A3007 RMK AO2
KCDH 131435Z AUTO VRB03KT 10SM CLR 02/M04 A3007 RMK AO2
KCDH 131415Z AUTO 00000KT 10SM CLR 00/M04 A3007 RMK AO2
KCDH 131355Z AUTO 00000KT 10SM CLR M01/M04 A3008 RMK AO2
KCDH 131335Z AUTO 00000KT 10SM CLR M03/M05 A3008 RMK AO2
KCDH 131315Z AUTO 00000KT 10SM CLR M04/M06 A3009 RMK AO2
KCDH 131255Z AUTO 00000KT 10SM FEW036 M04/M06 A3009 RMK AO2
KCDH 131235Z AUTO 00000KT 10SM SCT039 M04/M06 A3009 RMK AO2
KCDH 131215Z AUTO 00000KT 10SM SCT040 M04/M06 A3009 RMK AO2
KCDH 131155Z AUTO 00000KT 10SM SCT040 M04/M06 A3009 RMK AO2
KCDH 131135Z AUTO 00000KT 10SM BKN040 M04/M06 A3010 RMK AO2
KCDH 131115Z AUTO 00000KT 10SM BKN040 M04/M06 A3010 RMK AO2
KCDH 131055Z AUTO 00000KT 10SM BKN040 M04/M06 A3011 RMK AO2
KCDH 131035Z AUTO 00000KT 10SM BKN039 M04/M06 A3011 RMK AO2
KCDH 131015Z AUTO 00000KT 10SM BKN041 M04/M06 A3012 RMK AO2
KCDH 130955Z AUTO 00000KT 10SM BKN042 M04/M06 A3013 RMK AO2
KCDH 130935Z AUTO 00000KT 10SM OVC041 M04/M06 A3013 RMK AO2
KCDH 130915Z AUTO 00000KT 10SM OVC040 M04/M06 A3014 RMK AO2
KCDH 130855Z AUTO 00000KT 10SM BKN040 M04/M06 A3014 RMK AO2
KCDH 130835Z AUTO 00000KT 10SM FEW042 M04/M06 A3015 RMK AO2
KCDH 130815Z AUTO 00000KT 10SM CLR M04/M06 A3015 RMK AO2
KCDH 130755Z AUTO 00000KT 10SM CLR M03/M06 A3016 RMK AO2
KCDH 130735Z AUTO 00000KT 10SM CLR M03/M05 A3016 RMK AO2
KCDH 130715Z AUTO 00000KT 10SM CLR M03/M06 A3016 RMK AO2
KCDH 130655Z AUTO 00000KT 10SM CLR M03/M06 A3016 RMK AO2
KCDH 130635Z AUTO 00000KT 10SM CLR M03/M05 A3017 RMK AO2
KCDH 130615Z AUTO 00000KT 10SM CLR M02/M05 A3018 RMK AO2
KCDH 130555Z AUTO 00000KT 10SM CLR M02/M05 A3019 RMK AO2
KCDH 130535Z AUTO 00000KT 10SM CLR M02/M05 A3019 RMK AO2
KCDH 130515Z AUTO 00000KT 10SM CLR M02/M05 A3019 RMK AO2
KCDH 130455Z AUTO 00000KT 10SM CLR M02/M05 A3019 RMK AO2
KCDH 130435Z AUTO 00000KT 10SM CLR M02/M05 A3019 RMK AO2
KCDH 130415Z AUTO 00000KT 10SM CLR M01/M05 A3019 RMK AO2
KCDH 130355Z AUTO 00000KT 10SM CLR M01/M05 A3019 RMK AO2
KCDH 130335Z AUTO 10SM CLR M01/M05 A3019 RMK AO2
KCDH 130315Z AUTO 00000KT 10SM CLR M01/M06 A3019 RMK AO2
KCDH 130255Z AUTO 00000KT 10SM CLR 00/M06 A3019 RMK AO2
KCDH 130235Z AUTO 00000KT 10SM CLR M00/M06 A3020 RMK AO2
KCDH 130215Z AUTO 00000KT 10SM CLR 01/M06 A3020 RMK AO2
KCDH 130155Z AUTO 00000KT 10SM CLR 01/M07 A3020 RMK AO2
KCDH 130135Z AUTO 00000KT 10SM CLR 02/M07 A3020 RMK AO2
KCDH 130115Z AUTO 00000KT 10SM CLR 02/M07 A3020 RMK AO2
KCDH 130055Z AUTO 00000KT 10SM CLR 03/M08 A3019 RMK AO2
KCDH 130035Z AUTO 00000KT 10SM CLR 04/M07 A3019 RMK AO2
KCDH 130015Z AUTO 00000KT 10SM CLR 05/M07 A3019 RMK AO2
KCDH 122355Z AUTO 00000KT 10SM CLR 05/M07 A3019 RMK AO2
KCDH 122335Z AUTO 00000KT 10SM CLR 07/M08 A3019 RMK AO2
KCDH 122315Z AUTO 00000KT 10SM CLR 09/M09 A3019 RMK AO2
KCDH 122255Z AUTO 00000KT 10SM CLR 12/M11 A3019 RMK AO2
KCDH 122235Z AUTO 32003KT 10SM CLR 13/M12 A3019 RMK AO2